sensor_id;sensor_type;location;lat;lon;timestamp;P1;durP1;ratioP1;P2;durP2;ratioP2
51252;SDS011;38936;47.808;19.936;2022-09-23T00:00:34;2.13;;;1.20;;
51252;SDS011;38936;47.808;19.936;2022-09-23T00:05:29;2.25;;;0.77;;
51252;SDS011;38936;47.808;19.936;2022-09-23T00:07:55;1.98;;;1.17;;
51252;SDS011;38936;47.808;19.936;2022-09-23T00:10:21;4.28;;;1.00;;
51252;SDS011;38936;47.808;19.936;2022-09-23T00:12:48;2.35;;;1.15;;
51252;SDS011;38936;47.808;19.936;2022-09-23T00:17:39;3.20;;;1.20;;
51252;SDS011;38936;47.808;19.936;2022-09-23T00:22:33;1.60;;;1.00;;
51252;SDS011;38936;47.808;19.936;2022-09-23T00:25:00;2.00;;;1.10;;
51252;SDS011;38936;47.808;19.936;2022-09-23T00:27:30;1.85;;;1.05;;
51252;SDS011;38936;47.808;19.936;2022-09-23T00:29:57;5.45;;;1.40;;
51252;SDS011;38936;47.808;19.936;2022-09-23T00:34:49;4.30;;;1.58;;
51252;SDS011;38936;47.808;19.936;2022-09-23T00:37:15;2.15;;;1.33;;
51252;SDS011;38936;47.808;19.936;2022-09-23T00:42:12;5.25;;;1.00;;
51252;SDS011;38936;47.808;19.936;2022-09-23T00:47:20;3.67;;;2.00;;
51252;SDS011;38936;47.808;19.936;2022-09-23T00:52:32;3.35;;;1.80;;
51252;SDS011;38936;47.808;19.936;2022-09-23T00:57:26;2.78;;;1.17;;
51252;SDS011;38936;47.808;19.936;2022-09-23T00:59:53;4.70;;;1.35;;
51252;SDS011;38936;47.808;19.936;2022-09-23T01:04:48;4.95;;;1.20;;
51252;SDS011;38936;47.808;19.936;2022-09-23T01:07:14;2.25;;;1.23;;
51252;SDS011;38936;47.808;19.936;2022-09-23T01:09:41;2.55;;;1.30;;
51252;SDS011;38936;47.808;19.936;2022-09-23T01:14:59;1.90;;;1.27;;
51252;SDS011;38936;47.808;19.936;2022-09-23T01:25:41;2.13;;;1.23;;
51252;SDS011;38936;47.808;19.936;2022-09-23T01:42:50;5.93;;;4.03;;
51252;SDS011;38936;47.808;19.936;2022-09-23T01:47:58;4.78;;;2.22;;
51252;SDS011;38936;47.808;19.936;2022-09-23T01:50:46;3.67;;;2.22;;
51252;SDS011;38936;47.808;19.936;2022-09-23T01:53:28;10.65;;;1.98;;
51252;SDS011;38936;47.808;19.936;2022-09-23T01:56:02;4.65;;;1.85;;
51252;SDS011;38936;47.808;19.936;2022-09-23T01:58:40;2.85;;;1.70;;
51252;SDS011;38936;47.808;19.936;2022-09-23T02:01:14;2.78;;;1.98;;
51252;SDS011;38936;47.808;19.936;2022-09-23T02:03:51;4.25;;;2.55;;
51252;SDS011;38936;47.808;19.936;2022-09-23T02:06:28;2.78;;;1.75;;
51252;SDS011;38936;47.808;19.936;2022-09-23T02:09:04;4.82;;;2.58;;
51252;SDS011;38936;47.808;19.936;2022-09-23T02:11:36;6.07;;;2.45;;
51252;SDS011;38936;47.808;19.936;2022-09-23T02:16:53;4.63;;;2.33;;
51252;SDS011;38936;47.808;19.936;2022-09-23T02:19:36;6.90;;;2.40;;
51252;SDS011;38936;47.808;19.936;2022-09-23T02:22:18;3.67;;;2.10;;
51252;SDS011;38936;47.808;19.936;2022-09-23T02:24:48;3.55;;;1.95;;
51252;SDS011;38936;47.808;19.936;2022-09-23T02:30:04;3.78;;;2.38;;
51252;SDS011;38936;47.808;19.936;2022-09-23T02:35:21;6.97;;;4.40;;
51252;SDS011;38936;47.808;19.936;2022-09-23T02:46:06;3.53;;;1.85;;
51252;SDS011;38936;47.808;19.936;2022-09-23T02:51:05;2.78;;;1.60;;
51252;SDS011;38936;47.808;19.936;2022-09-23T02:53:31;3.22;;;1.33;;
51252;SDS011;38936;47.808;19.936;2022-09-23T02:55:59;6.85;;;1.38;;
51252;SDS011;38936;47.808;19.936;2022-09-23T02:58:25;3.03;;;1.48;;
51252;SDS011;38936;47.808;19.936;2022-09-23T03:10:07;8.57;;;6.00;;
51252;SDS011;38936;47.808;19.936;2022-09-23T03:12:49;7.90;;;4.35;;
51252;SDS011;38936;47.808;19.936;2022-09-23T03:18:20;4.15;;;2.42;;
51252;SDS011;38936;47.808;19.936;2022-09-23T03:23:53;10.45;;;2.67;;
51252;SDS011;38936;47.808;19.936;2022-09-23T03:26:26;3.95;;;2.50;;
51252;SDS011;38936;47.808;19.936;2022-09-23T03:28:55;4.60;;;2.63;;
51252;SDS011;38936;47.808;19.936;2022-09-23T03:31:22;5.82;;;3.17;;
51252;SDS011;38936;47.808;19.936;2022-09-23T03:33:49;3.38;;;2.28;;
51252;SDS011;38936;47.808;19.936;2022-09-23T03:36:20;8.48;;;6.30;;
51252;SDS011;38936;47.808;19.936;2022-09-23T03:39:15;3.75;;;2.58;;
51252;SDS011;38936;47.808;19.936;2022-09-23T03:41:54;3.53;;;1.65;;
51252;SDS011;38936;47.808;19.936;2022-09-23T03:44:22;4.88;;;2.15;;
51252;SDS011;38936;47.808;19.936;2022-09-23T03:49:19;4.50;;;2.17;;
51252;SDS011;38936;47.808;19.936;2022-09-23T03:51:51;3.65;;;2.03;;
51252;SDS011;38936;47.808;19.936;2022-09-23T03:54:18;4.50;;;2.45;;
51252;SDS011;38936;47.808;19.936;2022-09-23T03:56:44;4.90;;;2.47;;
51252;SDS011;38936;47.808;19.936;2022-09-23T03:59:12;7.28;;;2.58;;
51252;SDS011;38936;47.808;19.936;2022-09-23T04:01:41;6.25;;;3.22;;
51252;SDS011;38936;47.808;19.936;2022-09-23T04:04:08;9.55;;;3.50;;
51252;SDS011;38936;47.808;19.936;2022-09-23T04:06:34;12.68;;;4.60;;
51252;SDS011;38936;47.808;19.936;2022-09-23T04:11:25;10.68;;;5.70;;
51252;SDS011;38936;47.808;19.936;2022-09-23T04:13:52;10.70;;;4.85;;
51252;SDS011;38936;47.808;19.936;2022-09-23T04:16:19;15.88;;;4.32;;
51252;SDS011;38936;47.808;19.936;2022-09-23T04:21:10;9.95;;;4.43;;
51252;SDS011;38936;47.808;19.936;2022-09-23T04:26:03;7.65;;;4.07;;
51252;SDS011;38936;47.808;19.936;2022-09-23T04:28:29;7.40;;;3.20;;
51252;SDS011;38936;47.808;19.936;2022-09-23T04:33:22;5.70;;;3.08;;
51252;SDS011;38936;47.808;19.936;2022-09-23T04:35:49;10.45;;;3.78;;
51252;SDS011;38936;47.808;19.936;2022-09-23T04:38:16;9.10;;;4.22;;
51252;SDS011;38936;47.808;19.936;2022-09-23T04:40:42;6.60;;;4.05;;
51252;SDS011;38936;47.808;19.936;2022-09-23T04:45:33;8.68;;;4.90;;
51252;SDS011;38936;47.808;19.936;2022-09-23T04:50:26;12.00;;;6.03;;
51252;SDS011;38936;47.808;19.936;2022-09-23T04:55:18;10.25;;;5.85;;
51252;SDS011;38936;47.808;19.936;2022-09-23T05:00:09;9.57;;;4.57;;
51252;SDS011;38936;47.808;19.936;2022-09-23T05:02:43;7.45;;;3.63;;
51252;SDS011;38936;47.808;19.936;2022-09-23T05:05:09;13.73;;;5.30;;
51252;SDS011;38936;47.808;19.936;2022-09-23T05:07:36;15.65;;;7.22;;
51252;SDS011;38936;47.808;19.936;2022-09-23T05:12:27;7.60;;;4.13;;
51252;SDS011;38936;47.808;19.936;2022-09-23T05:17:19;7.30;;;4.28;;
51252;SDS011;38936;47.808;19.936;2022-09-23T05:19:45;7.88;;;4.68;;
51252;SDS011;38936;47.808;19.936;2022-09-23T05:24:36;10.25;;;5.13;;
51252;SDS011;38936;47.808;19.936;2022-09-23T05:29:29;11.57;;;5.03;;
51252;SDS011;38936;47.808;19.936;2022-09-23T05:34:20;9.98;;;5.50;;
51252;SDS011;38936;47.808;19.936;2022-09-23T05:36:47;10.48;;;4.72;;
51252;SDS011;38936;47.808;19.936;2022-09-23T05:41:38;12.88;;;5.40;;
51252;SDS011;38936;47.808;19.936;2022-09-23T05:44:05;12.73;;;6.32;;
51252;SDS011;38936;47.808;19.936;2022-09-23T05:48:57;13.25;;;5.20;;
51252;SDS011;38936;47.808;19.936;2022-09-23T05:51:24;10.48;;;5.18;;
51252;SDS011;38936;47.808;19.936;2022-09-23T05:53:51;10.18;;;4.97;;
51252;SDS011;38936;47.808;19.936;2022-09-23T05:56:20;13.15;;;8.80;;
51252;SDS011;38936;47.808;19.936;2022-09-23T05:58:48;16.40;;;9.75;;
51252;SDS011;38936;47.808;19.936;2022-09-23T06:01:16;12.25;;;6.65;;
51252;SDS011;38936;47.808;19.936;2022-09-23T06:03:48;8.38;;;5.75;;
51252;SDS011;38936;47.808;19.936;2022-09-23T06:06:15;8.88;;;4.30;;
51252;SDS011;38936;47.808;19.936;2022-09-23T06:08:43;7.22;;;3.80;;
51252;SDS011;38936;47.808;19.936;2022-09-23T06:11:10;7.28;;;3.95;;
51252;SDS011;38936;47.808;19.936;2022-09-23T06:13:36;9.38;;;3.97;;
51252;SDS011;38936;47.808;19.936;2022-09-23T06:16:07;9.15;;;4.13;;
51252;SDS011;38936;47.808;19.936;2022-09-23T06:18:38;15.43;;;4.20;;
51252;SDS011;38936;47.808;19.936;2022-09-23T06:21:05;10.45;;;3.47;;
51252;SDS011;38936;47.808;19.936;2022-09-23T06:23:31;8.25;;;4.55;;
51252;SDS011;38936;47.808;19.936;2022-09-23T06:28:30;12.32;;;4.85;;
51252;SDS011;38936;47.808;19.936;2022-09-23T06:31:01;9.50;;;5.97;;
51252;SDS011;38936;47.808;19.936;2022-09-23T06:33:29;13.52;;;5.75;;
51252;SDS011;38936;47.808;19.936;2022-09-23T06:35:59;16.17;;;7.28;;
51252;SDS011;38936;47.808;19.936;2022-09-23T06:38:26;15.00;;;6.22;;
51252;SDS011;38936;47.808;19.936;2022-09-23T06:40:54;14.60;;;6.15;;
51252;SDS011;38936;47.808;19.936;2022-09-23T06:43:21;18.63;;;6.72;;
51252;SDS011;38936;47.808;19.936;2022-09-23T06:48:19;13.32;;;5.50;;
51252;SDS011;38936;47.808;19.936;2022-09-23T06:50:45;12.63;;;5.40;;
51252;SDS011;38936;47.808;19.936;2022-09-23T06:53:13;14.00;;;4.35;;
51252;SDS011;38936;47.808;19.936;2022-09-23T06:55:39;6.20;;;3.58;;
51252;SDS011;38936;47.808;19.936;2022-09-23T06:58:05;7.13;;;2.50;;
51252;SDS011;38936;47.808;19.936;2022-09-23T07:00:33;4.90;;;2.42;;
51252;SDS011;38936;47.808;19.936;2022-09-23T07:02:59;5.05;;;1.90;;
51252;SDS011;38936;47.808;19.936;2022-09-23T07:05:25;3.47;;;1.75;;
51252;SDS011;38936;47.808;19.936;2022-09-23T07:07:50;6.45;;;2.10;;
51252;SDS011;38936;47.808;19.936;2022-09-23T07:10:17;4.80;;;1.77;;
51252;SDS011;38936;47.808;19.936;2022-09-23T07:12:43;3.50;;;2.25;;
51252;SDS011;38936;47.808;19.936;2022-09-23T07:15:09;5.03;;;2.47;;
51252;SDS011;38936;47.808;19.936;2022-09-23T07:17:35;4.57;;;2.22;;
51252;SDS011;38936;47.808;19.936;2022-09-23T07:20:01;3.78;;;1.83;;
51252;SDS011;38936;47.808;19.936;2022-09-23T07:22:27;4.68;;;2.40;;
51252;SDS011;38936;47.808;19.936;2022-09-23T07:24:53;6.90;;;2.25;;
51252;SDS011;38936;47.808;19.936;2022-09-23T07:27:22;4.55;;;2.40;;
51252;SDS011;38936;47.808;19.936;2022-09-23T07:29:48;3.53;;;2.28;;
51252;SDS011;38936;47.808;19.936;2022-09-23T07:32:15;4.75;;;3.08;;
51252;SDS011;38936;47.808;19.936;2022-09-23T07:34:41;8.30;;;4.55;;
51252;SDS011;38936;47.808;19.936;2022-09-23T07:37:08;10.70;;;4.43;;
51252;SDS011;38936;47.808;19.936;2022-09-23T07:39:34;8.57;;;2.83;;
51252;SDS011;38936;47.808;19.936;2022-09-23T07:42:00;6.43;;;1.98;;
51252;SDS011;38936;47.808;19.936;2022-09-23T07:44:29;4.45;;;1.40;;
51252;SDS011;38936;47.808;19.936;2022-09-23T07:46:56;5.10;;;1.40;;
51252;SDS011;38936;47.808;19.936;2022-09-23T07:49:22;2.60;;;1.10;;
51252;SDS011;38936;47.808;19.936;2022-09-23T07:51:48;3.30;;;1.30;;
51252;SDS011;38936;47.808;19.936;2022-09-23T07:54:15;2.67;;;1.17;;
51252;SDS011;38936;47.808;19.936;2022-09-23T07:56:42;3.28;;;1.40;;
51252;SDS011;38936;47.808;19.936;2022-09-23T07:59:09;3.88;;;1.40;;
51252;SDS011;38936;47.808;19.936;2022-09-23T08:01:43;4.40;;;1.98;;
51252;SDS011;38936;47.808;19.936;2022-09-23T08:04:13;6.13;;;1.60;;
51252;SDS011;38936;47.808;19.936;2022-09-23T08:06:42;2.90;;;1.05;;
51252;SDS011;38936;47.808;19.936;2022-09-23T08:09:10;5.38;;;1.60;;
51252;SDS011;38936;47.808;19.936;2022-09-23T08:11:36;5.18;;;1.40;;
51252;SDS011;38936;47.808;19.936;2022-09-23T08:14:09;1.45;;;0.98;;
51252;SDS011;38936;47.808;19.936;2022-09-23T08:16:37;3.13;;;1.23;;
51252;SDS011;38936;47.808;19.936;2022-09-23T08:19:04;2.90;;;1.17;;
51252;SDS011;38936;47.808;19.936;2022-09-23T08:21:31;2.80;;;1.20;;
51252;SDS011;38936;47.808;19.936;2022-09-23T08:23:57;5.60;;;1.30;;
51252;SDS011;38936;47.808;19.936;2022-09-23T08:26:23;2.35;;;1.25;;
51252;SDS011;38936;47.808;19.936;2022-09-23T08:28:49;2.47;;;1.40;;
51252;SDS011;38936;47.808;19.936;2022-09-23T08:31:22;2.42;;;0.90;;
51252;SDS011;38936;47.808;19.936;2022-09-23T08:33:55;5.68;;;2.40;;
51252;SDS011;38936;47.808;19.936;2022-09-23T08:36:22;2.95;;;1.77;;
51252;SDS011;38936;47.808;19.936;2022-09-23T08:38:48;7.03;;;3.70;;
51252;SDS011;38936;47.808;19.936;2022-09-23T08:44:19;16.60;;;11.70;;
51252;SDS011;38936;47.808;19.936;2022-09-23T08:46:51;3.78;;;2.30;;
51252;SDS011;38936;47.808;19.936;2022-09-23T08:49:24;5.20;;;3.15;;
51252;SDS011;38936;47.808;19.936;2022-09-23T08:51:56;8.98;;;3.42;;
51252;SDS011;38936;47.808;19.936;2022-09-23T08:54:30;4.88;;;1.30;;
51252;SDS011;38936;47.808;19.936;2022-09-23T08:56:56;3.83;;;1.30;;
51252;SDS011;38936;47.808;19.936;2022-09-23T08:59:44;3.42;;;2.20;;
51252;SDS011;38936;47.808;19.936;2022-09-23T09:02:13;3.70;;;2.00;;
51252;SDS011;38936;47.808;19.936;2022-09-23T09:04:42;5.25;;;2.80;;
51252;SDS011;38936;47.808;19.936;2022-09-23T09:07:13;3.78;;;2.38;;
51252;SDS011;38936;47.808;19.936;2022-09-23T09:13:03;3.35;;;2.30;;
51252;SDS011;38936;47.808;19.936;2022-09-23T09:15:31;1.85;;;1.23;;
51252;SDS011;38936;47.808;19.936;2022-09-23T09:18:17;1.63;;;1.10;;
51252;SDS011;38936;47.808;19.936;2022-09-23T09:20:58;1.35;;;0.80;;
51252;SDS011;38936;47.808;19.936;2022-09-23T09:23:38;1.35;;;0.90;;
51252;SDS011;38936;47.808;19.936;2022-09-23T09:26:19;1.42;;;0.90;;
51252;SDS011;38936;47.808;19.936;2022-09-23T09:29:04;4.28;;;2.88;;
51252;SDS011;38936;47.808;19.936;2022-09-23T09:31:48;2.40;;;0.90;;
51252;SDS011;38936;47.808;19.936;2022-09-23T09:34:19;2.22;;;1.30;;
51252;SDS011;38936;47.808;19.936;2022-09-23T09:37:08;2.05;;;1.02;;
51252;SDS011;38936;47.808;19.936;2022-09-23T09:39:47;2.75;;;1.75;;
51252;SDS011;38936;47.808;19.936;2022-09-23T09:42:18;2.53;;;1.27;;
51252;SDS011;38936;47.808;19.936;2022-09-23T09:44:57;4.82;;;1.65;;
51252;SDS011;38936;47.808;19.936;2022-09-23T09:58:22;2.15;;;1.35;;
51252;SDS011;38936;47.808;19.936;2022-09-23T10:00:49;2.53;;;1.50;;
51252;SDS011;38936;47.808;19.936;2022-09-23T10:05:49;4.07;;;1.70;;
51252;SDS011;38936;47.808;19.936;2022-09-23T10:13:33;4.05;;;1.70;;
51252;SDS011;38936;47.808;19.936;2022-09-23T10:16:00;7.80;;;4.85;;
51252;SDS011;38936;47.808;19.936;2022-09-23T10:21:10;2.50;;;1.30;;
51252;SDS011;38936;47.808;19.936;2022-09-23T10:23:51;1.95;;;1.30;;
51252;SDS011;38936;47.808;19.936;2022-09-23T10:26:29;2.72;;;1.65;;
51252;SDS011;38936;47.808;19.936;2022-09-23T10:43:15;5.80;;;2.25;;
51252;SDS011;38936;47.808;19.936;2022-09-23T10:46:18;4.25;;;2.45;;
51252;SDS011;38936;47.808;19.936;2022-09-23T11:25:40;3.60;;;1.50;;
51252;SDS011;38936;47.808;19.936;2022-09-23T11:28:24;2.88;;;1.30;;
51252;SDS011;38936;47.808;19.936;2022-09-23T11:36:52;2.83;;;1.58;;
51252;SDS011;38936;47.808;19.936;2022-09-23T11:39:24;2.42;;;1.08;;
51252;SDS011;38936;47.808;19.936;2022-09-23T11:41:59;1.90;;;1.00;;
51252;SDS011;38936;47.808;19.936;2022-09-23T11:44:38;6.18;;;1.05;;
51252;SDS011;38936;47.808;19.936;2022-09-23T11:47:09;3.78;;;0.90;;
51252;SDS011;38936;47.808;19.936;2022-09-23T11:49:52;2.60;;;0.88;;
51252;SDS011;38936;47.808;19.936;2022-09-23T11:52:41;2.40;;;1.10;;
51252;SDS011;38936;47.808;19.936;2022-09-23T11:57:40;2.13;;;0.80;;
51252;SDS011;38936;47.808;19.936;2022-09-23T12:03:01;2.42;;;1.10;;
51252;SDS011;38936;47.808;19.936;2022-09-23T12:05:51;2.28;;;1.00;;
51252;SDS011;38936;47.808;19.936;2022-09-23T12:08:26;1.55;;;0.88;;
51252;SDS011;38936;47.808;19.936;2022-09-23T12:11:56;1.50;;;0.95;;
51252;SDS011;38936;47.808;19.936;2022-09-23T12:14:11;2.35;;;1.38;;
51252;SDS011;38936;47.808;19.936;2022-09-23T12:17:05;1.92;;;1.02;;
51252;SDS011;38936;47.808;19.936;2022-09-23T12:22:39;2.17;;;1.00;;
51252;SDS011;38936;47.808;19.936;2022-09-23T12:27:54;2.83;;;1.80;;
51252;SDS011;38936;47.808;19.936;2022-09-23T12:30:30;3.22;;;0.85;;
51252;SDS011;38936;47.808;19.936;2022-09-23T12:35:48;2.65;;;1.05;;
51252;SDS011;38936;47.808;19.936;2022-09-23T12:38:21;4.72;;;1.10;;
51252;SDS011;38936;47.808;19.936;2022-09-23T12:40:49;1.77;;;0.95;;
51252;SDS011;38936;47.808;19.936;2022-09-23T12:43:27;3.47;;;1.50;;
51252;SDS011;38936;47.808;19.936;2022-09-23T12:51:21;5.18;;;1.40;;
51252;SDS011;38936;47.808;19.936;2022-09-23T13:01:18;3.15;;;1.20;;
51252;SDS011;38936;47.808;19.936;2022-09-23T13:03:55;3.63;;;2.70;;
51252;SDS011;38936;47.808;19.936;2022-09-23T13:09:42;1.92;;;0.85;;
51252;SDS011;38936;47.808;19.936;2022-09-23T13:12:15;2.00;;;1.13;;
51252;SDS011;38936;47.808;19.936;2022-09-23T13:14:49;1.65;;;1.13;;
51252;SDS011;38936;47.808;19.936;2022-09-23T13:17:30;4.05;;;1.70;;
51252;SDS011;38936;47.808;19.936;2022-09-23T13:25:18;4.22;;;2.00;;
51252;SDS011;38936;47.808;19.936;2022-09-23T13:27:56;3.47;;;1.55;;
51252;SDS011;38936;47.808;19.936;2022-09-23T13:30:25;5.53;;;2.45;;
51252;SDS011;38936;47.808;19.936;2022-09-23T13:33:10;49.78;;;27.67;;
51252;SDS011;38936;47.808;19.936;2022-09-23T13:35:44;7.97;;;4.28;;
51252;SDS011;38936;47.808;19.936;2022-09-23T13:38:24;4.43;;;1.50;;
51252;SDS011;38936;47.808;19.936;2022-09-23T13:40:54;2.50;;;1.45;;
51252;SDS011;38936;47.808;19.936;2022-09-23T13:44:08;2.70;;;1.33;;
51252;SDS011;38936;47.808;19.936;2022-09-23T13:46:29;3.60;;;1.60;;
51252;SDS011;38936;47.808;19.936;2022-09-23T13:49:03;3.10;;;1.55;;
51252;SDS011;38936;47.808;19.936;2022-09-23T13:51:33;2.60;;;1.50;;
51252;SDS011;38936;47.808;19.936;2022-09-23T13:54:00;3.85;;;1.42;;
51252;SDS011;38936;47.808;19.936;2022-09-23T13:56:28;3.22;;;1.60;;
51252;SDS011;38936;47.808;19.936;2022-09-23T14:02:09;4.22;;;1.48;;
51252;SDS011;38936;47.808;19.936;2022-09-23T14:04:44;1.88;;;0.80;;
51252;SDS011;38936;47.808;19.936;2022-09-23T14:07:11;2.92;;;1.20;;
51252;SDS011;38936;47.808;19.936;2022-09-23T14:09:44;3.63;;;1.20;;
51252;SDS011;38936;47.808;19.936;2022-09-23T14:12:12;3.55;;;1.38;;
51252;SDS011;38936;47.808;19.936;2022-09-23T14:14:39;3.50;;;1.95;;
51252;SDS011;38936;47.808;19.936;2022-09-23T14:17:06;2.25;;;1.30;;
51252;SDS011;38936;47.808;19.936;2022-09-23T14:19:34;22.33;;;12.95;;
51252;SDS011;38936;47.808;19.936;2022-09-23T14:22:01;9.57;;;3.38;;
51252;SDS011;38936;47.808;19.936;2022-09-23T14:24:34;3.25;;;1.90;;
51252;SDS011;38936;47.808;19.936;2022-09-23T14:32:00;6.55;;;4.00;;
51252;SDS011;38936;47.808;19.936;2022-09-23T14:40:09;4.03;;;1.65;;
51252;SDS011;38936;47.808;19.936;2022-09-23T14:42:45;2.65;;;1.10;;
51252;SDS011;38936;47.808;19.936;2022-09-23T14:45:35;3.37;;;1.17;;
51252;SDS011;38936;47.808;19.936;2022-09-23T14:48:07;3.83;;;1.83;;
51252;SDS011;38936;47.808;19.936;2022-09-23T14:50:53;9.68;;;5.80;;
51252;SDS011;38936;47.808;19.936;2022-09-23T14:55:51;3.63;;;1.42;;
51252;SDS011;38936;47.808;19.936;2022-09-23T14:58:21;3.15;;;1.10;;
51252;SDS011;38936;47.808;19.936;2022-09-23T15:00:55;2.50;;;1.02;;
51252;SDS011;38936;47.808;19.936;2022-09-23T15:03:24;1.83;;;0.93;;
51252;SDS011;38936;47.808;19.936;2022-09-23T15:05:56;6.80;;;1.27;;
51252;SDS011;38936;47.808;19.936;2022-09-23T15:08:27;3.92;;;1.20;;
51252;SDS011;38936;47.808;19.936;2022-09-23T15:10:52;2.65;;;0.90;;
51252;SDS011;38936;47.808;19.936;2022-09-23T15:13:31;2.28;;;1.17;;
51252;SDS011;38936;47.808;19.936;2022-09-23T15:16:01;5.20;;;1.10;;
51252;SDS011;38936;47.808;19.936;2022-09-23T15:18:32;2.72;;;1.15;;
51252;SDS011;38936;47.808;19.936;2022-09-23T15:21:06;2.40;;;1.10;;
51252;SDS011;38936;47.808;19.936;2022-09-23T15:23:53;2.33;;;1.10;;
51252;SDS011;38936;47.808;19.936;2022-09-23T15:29:09;6.03;;;1.05;;
51252;SDS011;38936;47.808;19.936;2022-09-23T15:31:35;3.80;;;1.88;;
51252;SDS011;38936;47.808;19.936;2022-09-23T15:34:01;6.57;;;0.90;;
51252;SDS011;38936;47.808;19.936;2022-09-23T15:36:29;3.15;;;1.42;;
51252;SDS011;38936;47.808;19.936;2022-09-23T15:39:05;3.45;;;1.30;;
51252;SDS011;38936;47.808;19.936;2022-09-23T15:41:34;2.75;;;1.17;;
51252;SDS011;38936;47.808;19.936;2022-09-23T15:44:18;5.00;;;1.50;;
51252;SDS011;38936;47.808;19.936;2022-09-23T15:46:53;3.42;;;1.02;;
51252;SDS011;38936;47.808;19.936;2022-09-23T15:49:27;4.22;;;0.90;;
51252;SDS011;38936;47.808;19.936;2022-09-23T15:51:58;2.42;;;1.08;;
51252;SDS011;38936;47.808;19.936;2022-09-23T15:54:25;4.35;;;1.17;;
51252;SDS011;38936;47.808;19.936;2022-09-23T15:56:54;2.08;;;0.90;;
51252;SDS011;38936;47.808;19.936;2022-09-23T15:59:21;4.00;;;1.27;;
51252;SDS011;38936;47.808;19.936;2022-09-23T16:01:48;5.30;;;1.90;;
51252;SDS011;38936;47.808;19.936;2022-09-23T16:04:15;2.17;;;1.27;;
51252;SDS011;38936;47.808;19.936;2022-09-23T16:06:41;3.40;;;1.30;;
51252;SDS011;38936;47.808;19.936;2022-09-23T16:09:08;5.10;;;1.70;;
51252;SDS011;38936;47.808;19.936;2022-09-23T16:11:37;4.00;;;2.28;;
51252;SDS011;38936;47.808;19.936;2022-09-23T16:14:04;3.72;;;2.10;;
51252;SDS011;38936;47.808;19.936;2022-09-23T16:16:36;3.42;;;1.33;;
51252;SDS011;38936;47.808;19.936;2022-09-23T16:21:27;2.92;;;1.48;;
51252;SDS011;38936;47.808;19.936;2022-09-23T16:26:20;4.07;;;2.22;;
51252;SDS011;38936;47.808;19.936;2022-09-23T16:28:51;15.88;;;2.60;;
51252;SDS011;38936;47.808;19.936;2022-09-23T16:31:18;12.02;;;4.32;;
51252;SDS011;38936;47.808;19.936;2022-09-23T16:33:44;6.65;;;4.00;;
51252;SDS011;38936;47.808;19.936;2022-09-23T16:36:53;15.73;;;6.72;;
51252;SDS011;38936;47.808;19.936;2022-09-23T16:39:03;14.93;;;8.55;;
51252;SDS011;38936;47.808;19.936;2022-09-23T16:41:31;18.27;;;11.10;;
51252;SDS011;38936;47.808;19.936;2022-09-23T16:43:57;19.55;;;11.98;;
51252;SDS011;38936;47.808;19.936;2022-09-23T16:46:24;19.65;;;11.10;;
51252;SDS011;38936;47.808;19.936;2022-09-23T16:48:51;19.95;;;9.85;;
51252;SDS011;38936;47.808;19.936;2022-09-23T16:53:44;19.35;;;13.20;;
51252;SDS011;38936;47.808;19.936;2022-09-23T16:56:13;27.75;;;18.88;;
51252;SDS011;38936;47.808;19.936;2022-09-23T17:01:05;23.73;;;15.50;;
51252;SDS011;38936;47.808;19.936;2022-09-23T17:03:51;28.50;;;12.77;;
51252;SDS011;38936;47.808;19.936;2022-09-23T17:06:17;19.20;;;10.48;;
51252;SDS011;38936;47.808;19.936;2022-09-23T17:08:43;15.45;;;8.38;;
51252;SDS011;38936;47.808;19.936;2022-09-23T17:11:15;11.15;;;6.70;;
51252;SDS011;38936;47.808;19.936;2022-09-23T17:13:44;14.52;;;9.13;;
51252;SDS011;38936;47.808;19.936;2022-09-23T17:16:20;24.50;;;11.13;;
51252;SDS011;38936;47.808;19.936;2022-09-23T17:18:51;9.75;;;6.65;;
51252;SDS011;38936;47.808;19.936;2022-09-23T17:21:19;12.18;;;8.18;;
51252;SDS011;38936;47.808;19.936;2022-09-23T17:23:46;23.40;;;12.82;;
51252;SDS011;38936;47.808;19.936;2022-09-23T17:28:39;18.13;;;12.10;;
51252;SDS011;38936;47.808;19.936;2022-09-23T17:33:31;28.10;;;15.18;;
51252;SDS011;38936;47.808;19.936;2022-09-23T17:36:03;28.08;;;15.23;;
51252;SDS011;38936;47.808;19.936;2022-09-23T17:38:31;29.92;;;14.15;;
51252;SDS011;38936;47.808;19.936;2022-09-23T17:43:24;28.85;;;15.25;;
51252;SDS011;38936;47.808;19.936;2022-09-23T17:48:17;28.27;;;15.43;;
51252;SDS011;38936;47.808;19.936;2022-09-23T17:50:54;27.88;;;14.55;;
51252;SDS011;38936;47.808;19.936;2022-09-23T17:53:24;17.98;;;10.57;;
51252;SDS011;38936;47.808;19.936;2022-09-23T17:55:53;16.90;;;7.80;;
51252;SDS011;38936;47.808;19.936;2022-09-23T17:58:22;23.88;;;11.73;;
51252;SDS011;38936;47.808;19.936;2022-09-23T18:00:48;37.58;;;17.58;;
51252;SDS011;38936;47.808;19.936;2022-09-23T18:05:40;18.95;;;9.48;;
51252;SDS011;38936;47.808;19.936;2022-09-23T18:10:31;21.42;;;12.02;;
51252;SDS011;38936;47.808;19.936;2022-09-23T18:15:22;21.85;;;12.73;;
51252;SDS011;38936;47.808;19.936;2022-09-23T18:20:13;22.95;;;12.63;;
51252;SDS011;38936;47.808;19.936;2022-09-23T18:22:40;29.92;;;14.07;;
51252;SDS011;38936;47.808;19.936;2022-09-23T18:27:34;25.33;;;11.02;;
51252;SDS011;38936;47.808;19.936;2022-09-23T18:30:00;29.38;;;15.40;;
51252;SDS011;38936;47.808;19.936;2022-09-23T18:34:51;34.00;;;16.00;;
51252;SDS011;38936;47.808;19.936;2022-09-23T18:39:42;22.75;;;9.75;;
51252;SDS011;38936;47.808;19.936;2022-09-23T18:44:34;11.35;;;6.43;;
51252;SDS011;38936;47.808;19.936;2022-09-23T18:49:25;13.00;;;6.90;;
51252;SDS011;38936;47.808;19.936;2022-09-23T18:52:09;14.38;;;8.00;;
51252;SDS011;38936;47.808;19.936;2022-09-23T18:57:01;11.45;;;6.28;;
51252;SDS011;38936;47.808;19.936;2022-09-23T18:59:26;10.60;;;5.50;;
51252;SDS011;38936;47.808;19.936;2022-09-23T19:01:53;22.45;;;5.53;;
51252;SDS011;38936;47.808;19.936;2022-09-23T19:04:20;8.23;;;4.80;;
51252;SDS011;38936;47.808;19.936;2022-09-23T19:06:47;8.63;;;5.45;;
51252;SDS011;38936;47.808;19.936;2022-09-23T19:09:13;14.93;;;8.70;;
51252;SDS011;38936;47.808;19.936;2022-09-23T19:11:40;23.10;;;11.68;;
51252;SDS011;38936;47.808;19.936;2022-09-23T19:16:33;24.98;;;12.65;;
51252;SDS011;38936;47.808;19.936;2022-09-23T19:19:00;22.75;;;13.50;;
51252;SDS011;38936;47.808;19.936;2022-09-23T19:21:27;36.53;;;15.80;;
51252;SDS011;38936;47.808;19.936;2022-09-23T19:23:57;28.92;;;16.38;;
51252;SDS011;38936;47.808;19.936;2022-09-23T19:26:28;78.00;;;46.20;;
51252;SDS011;38936;47.808;19.936;2022-09-23T19:28:56;87.38;;;51.05;;
51252;SDS011;38936;47.808;19.936;2022-09-23T19:31:24;74.60;;;42.25;;
51252;SDS011;38936;47.808;19.936;2022-09-23T19:33:53;124.78;;;60.42;;
51252;SDS011;38936;47.808;19.936;2022-09-23T19:36:31;89.43;;;45.97;;
51252;SDS011;38936;47.808;19.936;2022-09-23T19:38:59;83.97;;;40.70;;
51252;SDS011;38936;47.808;19.936;2022-09-23T19:41:27;55.72;;;30.17;;
51252;SDS011;38936;47.808;19.936;2022-09-23T19:43:56;38.45;;;23.00;;
51252;SDS011;38936;47.808;19.936;2022-09-23T19:46:27;27.08;;;15.23;;
51252;SDS011;38936;47.808;19.936;2022-09-23T19:48:54;19.77;;;11.93;;
51252;SDS011;38936;47.808;19.936;2022-09-23T19:53:46;12.65;;;8.15;;
51252;SDS011;38936;47.808;19.936;2022-09-23T19:58:42;15.18;;;8.30;;
51252;SDS011;38936;47.808;19.936;2022-09-23T20:01:09;15.30;;;8.88;;
51252;SDS011;38936;47.808;19.936;2022-09-23T20:06:00;13.00;;;7.72;;
51252;SDS011;38936;47.808;19.936;2022-09-23T20:10:51;11.18;;;7.40;;